PAE weather

Snohomish County (Paine Field) Airport
Everett, Washington, United States

Public forecast

Using degrees Fahrenheit for public forecast. Weather courtesy of forecast.io.

Current aviation weather report (METAR) for Snohomish County (Paine Field) Airport

Retrieved 2019/12/08 00:15 UTC (0 seconds ago):

KPAE 080015Z 17005KT 1SM R16R/P6000FT BR OVC003 08/08 A2974 RMK AO2 RAB2357E13 P0000 T00830078

Aviation forecast (TAF) for Snohomish County (Paine Field) Airport

Retrieved 2019-12-08 00:22 UTC (0 seconds ago):

TAF KPAE 072320Z 0800/0824 15005KT P6SM BKN006 OVC012 TEMPO 0800/0804 5SM -DZ BR OVC004 FM081700 VRB03KT P6SM BKN012 BKN025